Terminal Aerodrome Forecast
Issued by NWS Upton, NY

Home | Current Version | Previous Version | Text Only | Print | Product List | Glossary On
Versions: 1 2 3 4 5 6 7 8 9 10 11 12 13 14 15 16 17 18 19 20 21 22 23 24 25 26
000
FTUS41 KOKX 272000 AAB
TAFBDR
TAF AMD
KBDR 272034Z 2721/2818 33017G27KT 6SM -SN SCT020 BKN100
      TEMPO 2721/2724 2SM -SN BKN020
     FM280000 33014G20KT 6SM -SN BKN020
     FM280300 33012KT P6SM -SHSN BKN020
     FM281400 33013G21KT P6SM BKN025=

USA.gov is the U.S. government's official web portal to all federal, state and local government web resources and services.